Time;durP1;ratioP1;P1;durP2;ratioP2;P2;SDS_P1;SDS_P2;PMS_P1;PMS_P2;Temp;Humidity;BMP_temperature;BMP_pressure;BME280_temperature;BME280_humidity;BME280_pressure;Samples;Min_cycle;Max_cycle;Signal;HPM_P1;HPM_P2
2023/03/20 00:01:25;;;;;;;36.10;12.77;;;;;;;-148.88;100.00;76469.94;5042623;28;20028;-83
2023/03/20 00:03:53;;;;;;;39.53;13.35;;;;;;;-148.88;100.00;76484.16;5040133;28;20029;-83
2023/03/20 00:06:21;;;;;;;38.35;14.15;;;;;;;-148.88;100.00;76480.09;5040700;28;20029;-83
2023/03/20 00:08:48;;;;;;;43.38;13.73;;;;;;;-148.88;100.00;76486.19;5036900;28;20511;-82
2023/03/20 00:11:27;;;;;;;39.35;12.98;;;;;;;-148.88;100.00;76500.41;5037838;28;20077;-83
2023/03/20 00:13:56;;;;;;;33.40;13.30;;;;;;;-148.88;100.00;76492.28;5037613;28;20071;-83
2023/03/20 00:16:24;;;;;;;38.38;13.90;;;;;;;-148.88;100.00;76494.31;5038535;28;20021;-83
2023/03/20 00:18:49;;;;;;;48.78;25.25;;;;;;;-148.88;100.00;76488.22;5041262;28;20036;-83
2023/03/20 00:21:17;;;;;;;39.20;13.73;;;;;;;-148.88;100.00;76508.53;5041562;28;20025;-83
2023/03/20 00:23:42;;;;;;;40.45;14.60;;;;;;;-148.88;100.00;76512.59;5039752;28;20111;-83
2023/03/20 00:26:18;;;;;;;47.63;24.98;;;;;;;-148.88;100.00;76506.50;5039626;28;20433;-83
2023/03/20 00:28:45;;;;;;;37.85;13.70;;;;;;;-148.88;100.00;76510.56;5041040;28;20022;-83
2023/03/20 00:31:19;;;;;;;38.00;14.25;;;;;;;-148.88;100.00;76512.59;5041241;28;20025;-83
2023/03/20 00:33:44;;;;;;;54.22;27.23;;;;;;;-148.88;100.00;76508.53;5041719;28;20029;-83
2023/03/20 00:36:10;;;;;;;53.97;27.67;;;;;;;-148.88;100.00;76512.59;5042297;28;20029;-83
2023/03/20 00:38:35;;;;;;;43.80;14.15;;;;;;;-148.88;100.00;76514.63;5039817;28;20037;-83
2023/03/20 00:41:00;;;;;;;33.10;13.15;;;;;;;-148.88;100.00;76528.84;5043394;28;20039;-83
2023/03/20 00:43:26;;;;;;;54.75;27.52;;;;;;;-148.88;100.00;76541.03;5040959;28;20115;-82
2023/03/20 00:45:51;;;;;;;45.17;15.10;;;;;;;-148.88;100.00;76541.03;5037964;28;20106;-82
2023/03/20 00:48:17;;;;;;;43.20;15.38;;;;;;;-148.88;100.00;76547.13;5050505;28;20032;-82
2023/03/20 00:50:42;;;;;;;52.63;27.35;;;;;;;-148.88;100.00;76539.00;5057501;28;20112;-82
2023/03/20 00:53:09;;;;;;;44.05;14.60;;;;;;;-148.88;100.00;76543.06;5055759;28;20028;-83
2023/03/20 00:55:35;;;;;;;39.03;15.55;;;;;;;-148.88;100.00;76545.09;5043681;28;20033;-83
2023/03/20 00:58:01;;;;;;;58.75;28.90;;;;;;;-148.88;100.00;76551.19;5041498;28;20026;-83
2023/03/20 01:00:41;;;;;;;38.15;15.32;;;;;;;-148.88;100.00;76557.28;5042155;28;20056;-83
2023/03/20 01:03:14;;;;;;;40.63;14.25;;;;;;;-148.88;100.00;76557.28;5040608;28;20021;-83
2023/03/20 01:05:40;;;;;;;39.38;13.38;;;;;;;-148.88;100.00;76553.22;5040954;28;20024;-83
2023/03/20 01:08:15;;;;;;;39.30;14.35;;;;;;;-148.88;100.00;76551.19;5040935;28;20029;-83
2023/03/20 01:10:43;;;;;;;40.70;13.77;;;;;;;-148.88;100.00;76557.28;5040790;28;20026;-83
2023/03/20 01:13:20;;;;;;;40.13;14.73;;;;;;;-148.88;100.00;76557.28;5038939;28;20091;-82
2023/03/20 01:15:46;;;;;;;43.40;15.27;;;;;;;-148.88;100.00;76553.22;5039107;28;20025;-82
2023/03/20 01:18:13;;;;;;;60.20;29.15;;;;;;;-148.88;100.00;76545.09;5042184;28;20022;-82
2023/03/20 01:20:39;;;;;;;41.38;13.68;;;;;;;-148.88;100.00;76549.16;5040419;28;20028;-81
2023/03/20 01:23:05;;;;;;;44.63;14.65;;;;;;;-148.88;100.00;76545.09;5037721;28;20517;-81
2023/03/20 01:25:30;;;;;;;42.20;14.30;;;;;;;-148.88;100.00;76565.41;5039681;28;20028;-82
2023/03/20 01:27:56;;;;;;;41.20;16.17;;;;;;;-148.88;100.00;76569.47;5040589;28;20025;-82
2023/03/20 01:30:28;;;;;;;38.63;13.70;;;;;;;-148.88;100.00;76573.53;5040403;28;20071;-83
2023/03/20 01:32:54;;;;;;;35.70;12.88;;;;;;;-148.88;100.00;76573.53;5039633;28;20026;-83
2023/03/20 01:35:21;;;;;;;48.25;26.08;;;;;;;-148.88;100.00;76585.72;5039539;28;20067;-83
2023/03/20 01:37:48;;;;;;;42.97;14.50;;;;;;;-148.88;100.00;76597.91;5039065;28;20475;-82
2023/03/20 01:40:56;;;;;;;37.47;14.63;;;;;;;-148.88;100.00;76606.06;5039907;28;20021;-83
2023/03/20 01:43:22;;;;;;;34.05;13.27;;;;;;;-148.88;100.00;76604.00;4983077;28;20033;-82
2023/03/20 01:46:08;;;;;;;44.92;14.80;;;;;;;-148.88;100.00;76608.09;4982259;28;20038;-82
2023/03/20 01:48:48;;;;;;;40.83;14.48;;;;;;;-148.88;100.00;76616.22;5015126;28;20033;-82
2023/03/20 01:51:17;;;;;;;41.10;14.18;;;;;;;-148.88;100.00;76614.19;5040269;28;20045;-83
2023/03/20 01:53:45;;;;;;;50.70;15.80;;;;;;;-148.88;100.00;76597.91;5040073;28;20029;-82
2023/03/20 01:56:13;;;;;;;38.85;14.35;;;;;;;-148.88;100.00;76591.81;5041820;28;20026;-82
2023/03/20 01:58:43;;;;;;;44.53;13.88;;;;;;;-148.88;100.00;76573.53;5035589;28;20025;-82
2023/03/20 02:01:12;;;;;;;45.10;15.48;;;;;;;-148.88;100.00;76593.84;5038505;28;20086;-82
2023/03/20 02:03:40;;;;;;;45.78;15.80;;;;;;;-148.88;100.00;76581.66;5039164;28;20060;-82
2023/03/20 02:06:07;;;;;;;68.72;31.17;;;;;;;-148.88;100.00;76591.81;5039478;28;20041;-82
2023/03/20 02:08:40;;;;;;;50.30;15.23;;;;;;;-148.88;100.00;76585.72;5040563;28;20399;-84
2023/03/20 02:11:06;;;;;;;46.03;13.52;;;;;;;-148.88;100.00;76606.06;5039806;28;20113;-85
2023/03/20 02:13:33;;;;;;;40.33;13.90;;;;;;;-148.88;100.00;76601.97;5038123;28;20079;-84
2023/03/20 02:16:03;;;;;;;41.20;13.63;;;;;;;-148.88;100.00;76606.06;5037802;28;20089;-82
2023/03/20 02:18:30;;;;;;;51.55;15.43;;;;;;;-148.88;100.00;76612.13;5040919;28;20041;-81
2023/03/20 02:21:14;;;;;;;47.60;14.68;;;;;;;-148.88;100.00;76618.25;5040772;28;20567;-84
2023/03/20 02:24:07;;;;;;;47.70;16.02;;;;;;;-148.88;100.00;76589.78;5038643;28;20083;-84
2023/03/20 02:27:06;;;;;;;48.30;14.90;;;;;;;-148.88;100.00;76606.06;5040132;28;20034;-84
2023/03/20 02:30:00;;;;;;;46.50;14.70;;;;;;;-148.88;100.00;76601.97;5043647;28;20068;-84
2023/03/20 02:32:50;;;;;;;47.58;15.80;;;;;;;-148.88;100.00;76595.88;5042983;28;20479;-83
2023/03/20 02:35:40;;;;;;;42.72;15.25;;;;;;;-148.88;100.00;76585.72;5039080;28;20395;-82
2023/03/20 02:38:26;;;;;;;41.85;13.75;;;;;;;-148.88;100.00;76575.56;5038923;28;20021;-83
2023/03/20 02:40:59;;;;;;;45.33;15.38;;;;;;;-148.88;100.00;76583.69;5039065;28;20029;-83
2023/03/20 02:43:46;;;;;;;47.10;15.45;;;;;;;-148.88;100.00;76581.66;5041759;28;20439;-84
2023/03/20 02:46:14;;;;;;;48.80;15.07;;;;;;;-148.88;100.00;76585.72;5041650;28;20037;-84
2023/03/20 02:48:51;;;;;;;73.25;31.00;;;;;;;-148.88;100.00;76583.69;5042229;28;20094;-84
2023/03/20 02:51:36;;;;;;;41.67;13.75;;;;;;;-148.88;100.00;76581.66;5042741;28;20030;-83
2023/03/20 02:54:27;;;;;;;49.03;15.20;;;;;;;-148.88;100.00;76585.72;5041977;28;20399;-84
2023/03/20 02:57:22;;;;;;;43.15;15.75;;;;;;;-148.88;100.00;76581.66;5043196;28;20104;-84
2023/03/20 02:59:47;;;;;;;55.63;16.05;;;;;;;-148.88;100.00;76569.47;5041463;28;20027;-84
2023/03/20 03:02:35;;;;;;;49.75;14.95;;;;;;;-148.88;100.00;76577.59;5040371;28;20061;-84
2023/03/20 03:05:07;;;;;;;74.20;33.28;;;;;;;-148.88;100.00;76567.44;5040134;28;20049;-83
2023/03/20 03:07:34;;;;;;;55.50;17.38;;;;;;;-148.88;100.00;76563.38;5042409;28;20029;-84
2023/03/20 03:10:09;;;;;;;52.60;16.35;;;;;;;-148.88;100.00;76561.34;5041980;28;20420;-83
2023/03/20 03:12:38;;;;;;;48.00;16.23;;;;;;;-148.88;100.00;76555.25;5037151;28;20025;-82
2023/03/20 03:15:13;;;;;;;78.40;33.63;;;;;;;-148.88;100.00;76547.13;5036464;28;20075;-82
2023/03/20 03:17:41;;;;;;;61.13;17.73;;;;;;;-148.88;100.00;76543.06;5038697;28;20053;-83
2023/03/20 03:20:34;;;;;;;58.78;18.10;;;;;;;-148.88;100.00;76549.16;5039366;28;20048;-83
2023/03/20 03:23:01;;;;;;;63.15;18.70;;;;;;;-148.88;100.00;76545.09;5039662;28;20038;-83
2023/03/20 03:25:31;;;;;;;55.78;19.10;;;;;;;-148.88;100.00;76532.91;5041403;28;20029;-84
2023/03/20 03:28:25;;;;;;;62.35;17.90;;;;;;;-148.88;100.00;76524.78;5040487;28;20488;-84
2023/03/20 03:30:52;;;;;;;59.67;18.10;;;;;;;-148.88;100.00;76532.91;5041670;28;20022;-84
2023/03/20 03:33:22;;;;;;;73.70;21.95;;;;;;;-148.88;100.00;76528.84;5040565;28;20467;-83
2023/03/20 03:35:50;;;;;;;64.43;20.52;;;;;;;-148.88;100.00;76518.69;5040289;28;20032;-82
2023/03/20 03:38:27;;;;;;;60.25;18.83;;;;;;;-148.88;100.00;76510.56;5041051;28;20021;-83
2023/03/20 03:41:09;;;;;;;63.60;20.17;;;;;;;-148.88;100.00;76516.66;5039928;28;20033;-83
2023/03/20 03:43:41;;;;;;;67.13;20.08;;;;;;;-148.88;100.00;76512.59;5039905;28;20434;-84
2023/03/20 03:46:16;;;;;;;70.47;19.00;;;;;;;-148.88;100.00;76506.50;5038609;28;20026;-84
2023/03/20 03:48:49;;;;;;;58.90;19.10;;;;;;;-148.88;100.00;76510.56;5035327;28;20032;-83
2023/03/20 03:51:20;;;;;;;61.08;19.30;;;;;;;-148.88;100.00;76500.41;5035334;28;20065;-83
2023/03/20 03:53:53;;;;;;;64.43;18.98;;;;;;;-148.88;100.00;76512.59;5036808;28;20022;-83
2023/03/20 03:56:23;;;;;;;63.75;19.73;;;;;;;-148.88;100.00;76504.47;5040609;28;20018;-83
2023/03/20 03:58:53;;;;;;;61.85;18.77;;;;;;;-148.88;100.00;76496.34;5055379;28;20096;-84
2023/03/20 04:01:24;;;;;;;64.53;20.77;;;;;;;-148.88;100.00;76504.47;5056485;28;20017;-83
2023/03/20 04:03:53;;;;;;;58.70;20.15;;;;;;;-148.88;100.00;76508.53;5046218;28;20052;-85
2023/03/20 04:06:19;;;;;;;57.75;19.67;;;;;;;-148.88;100.00;76488.22;5042679;28;20025;-84
2023/03/20 04:08:45;;;;;;;62.60;20.60;;;;;;;-148.88;100.00;76496.34;5041978;28;20023;-85
2023/03/20 04:11:21;;;;;;;75.95;35.92;;;;;;;-148.88;100.00;76496.34;5039984;28;20053;-84
2023/03/20 04:13:48;;;;;;;57.45;19.05;;;;;;;-148.88;100.00;76480.09;5039746;28;20487;-84
2023/03/20 04:16:15;;;;;;;53.80;19.33;;;;;;;-148.88;100.00;76482.13;5040346;28;20025;-86
2023/03/20 04:18:40;;;;;;;56.40;18.35;;;;;;;-148.88;100.00;76498.38;5040669;28;20025;-86
2023/03/20 04:21:08;;;;;;;55.92;19.30;;;;;;;-148.88;100.00;76506.50;5040811;28;20044;-84
2023/03/20 04:23:34;;;;;;;59.17;19.40;;;;;;;-148.88;100.00;76490.25;5037796;28;20021;-82
2023/03/20 04:26:01;;;;;;;54.17;20.00;;;;;;;-148.88;100.00;76514.63;5093860;22;20484;-84
2023/03/20 04:28:26;;;;;;;54.83;18.70;;;;;;;-148.88;100.00;76508.53;5000337;28;20038;-84
2023/03/20 04:30:56;;;;;;;48.70;17.45;;;;;;;-148.88;100.00;76486.19;5000240;28;20026;-85
2023/03/20 04:33:24;;;;;;;51.72;17.27;;;;;;;-148.88;100.00;76494.31;5000651;28;20021;-84
2023/03/20 04:35:50;;;;;;;51.10;16.63;;;;;;;-148.88;100.00;76484.16;5000892;28;20489;-84
2023/03/20 04:38:16;;;;;;;45.47;15.80;;;;;;;-148.88;100.00;76492.28;5018066;28;20080;-84
2023/03/20 04:40:43;;;;;;;48.50;16.13;;;;;;;-148.88;100.00;76492.28;5010070;23;20047;-83
2023/03/20 04:43:08;;;;;;;54.25;18.00;;;;;;;-148.88;100.00;76496.34;4973830;28;20050;-83
2023/03/20 04:45:33;;;;;;;45.28;16.48;;;;;;;-148.88;100.00;76494.31;4974428;28;20124;-84
2023/03/20 04:47:59;;;;;;;48.33;17.95;;;;;;;-148.88;100.00;76498.38;4973841;28;20058;-83
2023/03/20 04:50:25;;;;;;;51.65;17.08;;;;;;;-148.88;100.00;76492.28;4973332;28;20026;-83
2023/03/20 04:52:50;;;;;;;43.00;15.30;;;;;;;-148.88;100.00;76500.41;4973687;28;20168;-84
2023/03/20 04:55:16;;;;;;;40.63;14.68;;;;;;;-148.88;100.00;76500.41;4973953;28;20023;-84
2023/03/20 04:57:41;;;;;;;50.60;16.95;;;;;;;-148.88;100.00;76508.53;4974195;28;20085;-84
2023/03/20 05:00:08;;;;;;;49.30;17.38;;;;;;;-148.88;100.00;76506.50;4975817;28;20027;-84
2023/03/20 05:02:34;;;;;;;43.13;15.80;;;;;;;-148.88;100.00;76500.41;4974365;28;20113;-84
2023/03/20 05:04:59;;;;;;;43.55;15.60;;;;;;;-148.88;100.00;76496.34;4973971;28;20094;-83
2023/03/20 05:07:25;;;;;;;43.58;15.93;;;;;;;-148.88;100.00;76490.25;4991080;28;20061;-84
2023/03/20 05:09:50;;;;;;;43.33;15.77;;;;;;;-148.88;100.00;76502.44;4975803;28;20062;-84
2023/03/20 05:12:16;;;;;;;61.30;29.27;;;;;;;-148.88;100.00;76496.34;4974322;28;20086;-84
2023/03/20 05:14:41;;;;;;;40.63;15.45;;;;;;;-148.88;100.00;76480.09;4974487;28;20060;-85
2023/03/20 05:17:07;;;;;;;43.75;16.30;;;;;;;-148.88;100.00;76500.41;4974104;28;20023;-85
2023/03/20 05:19:32;;;;;;;38.30;14.95;;;;;;;-148.88;100.00;76498.38;4973477;28;20490;-85
2023/03/20 05:22:00;;;;;;;44.80;15.05;;;;;;;-148.88;100.00;76510.56;4973736;28;20022;-85
2023/03/20 05:24:27;;;;;;;43.83;17.35;;;;;;;-148.88;100.00;76498.38;4974436;28;20114;-84
2023/03/20 05:26:55;;;;;;;46.15;14.82;;;;;;;-148.88;100.00;76498.38;4989865;28;20033;-85
2023/03/20 05:29:21;;;;;;;47.00;26.73;;;;;;;-148.88;100.00;76496.34;4976145;28;20106;-85
2023/03/20 05:31:46;;;;;;;37.35;14.00;;;;;;;-148.88;100.00;76500.41;4973673;28;20106;-84
2023/03/20 05:34:12;;;;;;;37.88;14.63;;;;;;;-148.88;100.00;76504.47;4974360;28;20113;-84
2023/03/20 05:36:40;;;;;;;40.40;15.27;;;;;;;-148.88;100.00;76512.59;4974478;28;20030;-85
2023/03/20 05:39:06;;;;;;;45.25;15.45;;;;;;;-148.88;100.00;76516.66;4974764;28;20085;-85
2023/03/20 05:41:31;;;;;;;39.95;15.13;;;;;;;-148.88;100.00;76506.50;4972729;28;20480;-86
2023/03/20 05:43:56;;;;;;;47.30;14.90;;;;;;;-148.88;100.00;76516.66;4975441;28;20042;-84
2023/03/20 05:46:22;;;;;;;43.17;25.08;;;;;;;-148.88;100.00;76512.59;4975353;28;20561;-86
2023/03/20 05:48:47;;;;;;;35.58;14.52;;;;;;;-148.88;100.00;76506.50;4989731;28;20073;-85
2023/03/20 05:51:13;;;;;;;42.67;24.70;;;;;;;-148.88;100.00;76516.66;4973442;28;20023;-86
2023/03/20 05:53:38;;;;;;;36.13;13.80;;;;;;;-148.88;100.00;76512.59;4974141;28;20113;-83
2023/03/20 05:56:06;;;;;;;38.50;13.48;;;;;;;-148.88;100.00;76500.41;4973874;28;20105;-84
2023/03/20 05:58:31;;;;;;;40.60;12.52;;;;;;;-148.88;100.00;76504.47;4974810;28;20039;-85
2023/03/20 06:00:57;;;;;;;43.85;14.05;;;;;;;-148.88;100.00;76520.72;4974673;28;20042;-87
2023/03/20 06:03:23;;;;;;;33.25;12.45;;;;;;;-148.88;100.00;76502.44;4975719;28;20029;-84
2023/03/20 06:05:48;;;;;;;43.08;24.60;;;;;;;-148.88;100.00;76508.53;4977081;28;20109;-83
2023/03/20 06:08:14;;;;;;;33.45;13.13;;;;;;;-148.88;100.00;76520.72;4978538;28;20389;-85
2023/03/20 06:10:43;;;;;;;40.33;24.30;;;;;;;-148.88;100.00;76504.47;4977057;28;20097;-84
2023/03/20 06:13:08;;;;;;;32.17;11.75;;;;;;;-148.88;100.00;76508.53;4977582;28;20042;-83
2023/03/20 06:15:34;;;;;;;33.97;12.02;;;;;;;-148.88;100.00;76516.66;4977987;28;20018;-84
2023/03/20 06:17:59;;;;;;;38.25;14.25;;;;;;;-148.88;100.00;76524.78;4977915;28;20114;-85
2023/03/20 06:20:25;;;;;;;37.10;15.45;;;;;;;-148.88;100.00;76528.84;4975997;28;20031;-84
2023/03/20 06:22:50;;;;;;;39.03;24.75;;;;;;;-148.88;100.00;76522.75;4977974;28;20085;-84
2023/03/20 06:25:16;;;;;;;36.88;13.13;;;;;;;-148.88;100.00;76520.72;4977221;28;20495;-85
2023/03/20 06:27:41;;;;;;;30.45;11.98;;;;;;;-148.88;100.00;76520.72;4977202;28;20110;-84
2023/03/20 06:30:08;;;;;;;33.20;13.30;;;;;;;-148.88;100.00;76512.59;4976636;28;20085;-84
2023/03/20 06:32:33;;;;;;;35.50;14.00;;;;;;;-148.88;100.00;76512.59;4975963;28;20023;-85
2023/03/20 06:34:58;;;;;;;45.95;25.88;;;;;;;-148.88;100.00;76514.63;4977799;28;20018;-84
2023/03/20 06:37:24;;;;;;;35.00;13.13;;;;;;;-148.88;100.00;76512.59;4977452;28;20023;-84
2023/03/20 06:39:49;;;;;;;30.65;13.73;;;;;;;-148.88;100.00;76512.59;4975690;28;20026;-84
2023/03/20 06:42:15;;;;;;;33.33;14.15;;;;;;;-148.88;100.00;76516.66;4975869;28;20030;-86
2023/03/20 06:44:41;;;;;;;38.50;13.50;;;;;;;-148.88;100.00;76520.72;4975601;28;20023;-84
2023/03/20 06:47:06;;;;;;;34.70;13.90;;;;;;;-148.88;100.00;76516.66;4977223;28;20030;-85
2023/03/20 06:49:31;;;;;;;34.67;13.77;;;;;;;-148.88;100.00;76508.53;4975923;28;20054;-85
2023/03/20 06:51:58;;;;;;;33.85;13.55;;;;;;;-148.88;100.00;76516.66;4975404;28;20481;-86
2023/03/20 06:54:24;;;;;;;36.17;13.45;;;;;;;-148.88;100.00;76512.59;4992002;28;20033;-84
2023/03/20 06:56:49;;;;;;;36.10;12.68;;;;;;;-148.88;100.00;76500.41;4975781;28;20023;-84
2023/03/20 06:59:14;;;;;;;35.75;12.43;;;;;;;-148.88;100.00;76512.59;4976992;28;20113;-85
2023/03/20 07:01:40;;;;;;;33.63;12.63;;;;;;;-148.88;100.00;76508.53;4975234;28;20026;-85
2023/03/20 07:04:05;;;;;;;34.42;12.50;;;;;;;-148.88;100.00;76522.75;4977239;28;20077;-85
2023/03/20 07:06:31;;;;;;;31.77;11.90;;;;;;;-148.88;100.00;76516.66;4976004;28;20026;-85
2023/03/20 07:08:56;;;;;;;38.22;13.82;;;;;;;-148.88;100.00;76510.56;4977236;28;20066;-84
2023/03/20 07:11:22;;;;;;;37.15;13.88;;;;;;;-148.88;100.00;76514.63;4977832;28;20037;-85
2023/03/20 07:13:47;;;;;;;33.80;12.52;;;;;;;-148.88;100.00;76508.53;4976033;28;20371;-84
2023/03/20 07:16:12;;;;;;;36.20;13.52;;;;;;;-148.88;100.00;76528.84;4977199;28;20405;-85
2023/03/20 07:18:38;;;;;;;35.10;14.30;;;;;;;-148.88;100.00;76532.91;4991857;28;20097;-85
2023/03/20 07:21:05;;;;;;;30.73;12.10;;;;;;;-148.88;100.00;76534.94;4975935;28;20073;-84
2023/03/20 07:23:33;;;;;;;37.70;13.90;;;;;;;-148.88;100.00;76524.78;4975484;28;20117;-85
2023/03/20 07:25:58;;;;;;;26.65;11.68;;;;;;;-148.88;100.00;76526.81;4975267;28;20041;-84
2023/03/20 07:28:24;;;;;;;32.47;11.98;;;;;;;-148.88;100.00;76512.59;4977010;28;20019;-85
2023/03/20 07:30:50;;;;;;;33.03;12.60;;;;;;;-148.88;100.00;76510.56;4975441;28;20035;-84
2023/03/20 07:33:15;;;;;;;28.35;11.60;;;;;;;-148.88;100.00;76512.59;4975196;28;20029;-84
2023/03/20 07:35:41;;;;;;;32.90;13.48;;;;;;;-148.88;100.00;76516.66;4977056;28;20018;-84
2023/03/20 07:38:06;;;;;;;30.90;12.15;;;;;;;-148.88;100.00;76496.34;4974641;28;20031;-84
2023/03/20 07:40:32;;;;;;;33.45;11.77;;;;;;;-148.88;100.00;76520.72;4976061;28;20039;-85
2023/03/20 07:42:57;;;;;;;28.92;10.90;;;;;;;-148.88;100.00;76512.59;4974934;28;20029;-84
2023/03/20 07:45:23;;;;;;;25.25;10.23;;;;;;;-148.88;100.00;76504.47;4976211;28;20022;-84
2023/03/20 07:47:49;;;;;;;22.45;9.77;;;;;;;-148.88;100.00;76508.53;4976568;28;20027;-85
2023/03/20 07:50:15;;;;;;;24.98;9.57;;;;;;;-148.88;100.00;76504.47;4975220;28;20038;-84
2023/03/20 07:52:44;;;;;;;24.40;10.32;;;;;;;-148.88;100.00;76502.44;4975166;28;20122;-85
2023/03/20 07:55:10;;;;;;;25.33;16.75;;;;;;;-148.88;100.00;76508.53;4976569;28;20438;-85
2023/03/20 07:57:35;;;;;;;22.27;8.77;;;;;;;-148.88;100.00;76496.34;4975381;28;20054;-86
2023/03/20 08:00:00;;;;;;;26.88;16.50;;;;;;;-148.88;100.00;76488.22;4974984;28;20027;-84
2023/03/20 08:02:26;;;;;;;20.50;8.82;;;;;;;-148.88;100.00;76496.34;4976123;28;20026;-84
2023/03/20 08:04:51;;;;;;;19.50;8.27;;;;;;;-148.88;100.00;76486.19;4975885;28;20129;-84
2023/03/20 08:07:16;;;;;;;14.43;6.55;;;;;;;-148.88;100.00;76488.22;4974950;28;20057;-84
2023/03/20 08:09:42;;;;;;;13.13;6.22;;;;;;;-148.88;100.00;76486.19;4974382;28;20050;-85
2023/03/20 08:12:07;;;;;;;17.20;6.85;;;;;;;-148.88;100.00;76488.22;4974431;28;20062;-85
2023/03/20 08:14:33;;;;;;;16.92;6.93;;;;;;;-148.88;100.00;76492.28;4974267;28;20050;-85
2023/03/20 08:16:58;;;;;;;16.48;7.13;;;;;;;-148.88;100.00;76484.16;4974145;28;20118;-84
2023/03/20 08:19:24;;;;;;;17.27;10.80;;;;;;;-148.88;100.00;76496.34;4974099;28;20086;-84
2023/03/20 08:21:50;;;;;;;14.85;6.25;;;;;;;-148.88;100.00;76496.34;4975452;28;20034;-84
2023/03/20 08:24:16;;;;;;;15.70;6.68;;;;;;;-148.88;100.00;76494.31;4990459;28;20030;-85
2023/03/20 08:26:42;;;;;;;14.82;5.93;;;;;;;-148.88;100.00;76484.16;4974640;28;20022;-85
2023/03/20 08:29:08;;;;;;;14.82;5.80;;;;;;;-148.88;100.00;76484.16;4974526;28;20019;-84
2023/03/20 08:31:33;;;;;;;17.00;6.07;;;;;;;-148.88;98.70;76496.34;4975380;28;20452;-84
2023/03/20 08:33:58;;;;;;;12.82;9.15;;;;;;;-148.88;98.59;76492.28;4974593;28;20128;-85
2023/03/20 08:36:24;;;;;;;11.95;5.18;;;;;;;-148.88;98.36;76469.94;4973796;28;20023;-84
2023/03/20 08:38:49;;;;;;;12.40;5.50;;;;;;;-148.88;97.85;76474.00;4973859;28;20037;-84
2023/03/20 08:41:16;;;;;;;15.25;5.95;;;;;;;-148.88;97.32;76482.13;4973783;28;20036;-85
2023/03/20 08:43:42;;;;;;;10.50;5.68;;;;;;;-148.88;97.75;76488.22;4975125;28;20023;-84
2023/03/20 08:46:08;;;;;;;16.00;5.95;;;;;;;-148.88;98.41;76486.19;4973592;28;20083;-84
2023/03/20 08:48:33;;;;;;;13.75;5.57;;;;;;;-148.88;98.56;76488.22;4975332;28;20164;-85
2023/03/20 08:50:58;;;;;;;12.75;5.78;;;;;;;-148.88;97.90;76488.22;4973744;28;20450;-85
2023/03/20 08:53:24;;;;;;;10.70;4.85;;;;;;;-148.88;97.89;76459.78;4974566;28;20023;-85
2023/03/20 08:55:56;;;;;;;14.00;9.73;;;;;;;-148.88;98.24;76455.72;4973740;28;20105;-84
2023/03/20 08:58:22;;;;;;;12.07;5.30;;;;;;;-148.88;96.62;76443.53;4974241;28;20019;-84
2023/03/20 09:00:47;;;;;;;10.00;4.75;;;;;;;-148.88;95.45;76455.72;4975866;28;20089;-84
2023/03/20 09:03:15;;;;;;;13.20;4.90;;;;;;;-148.88;96.82;76443.53;4975525;28;20052;-85
2023/03/20 09:05:43;;;;;;;12.77;5.38;;;;;;;-148.88;95.57;76439.47;4973831;28;20034;-85
2023/03/20 09:08:08;;;;;;;9.82;5.07;;;;;;;-148.88;95.75;76467.91;4975402;28;20209;-84
2023/03/20 09:10:34;;;;;;;11.60;5.15;;;;;;;-148.88;93.93;76478.06;4974971;28;20050;-85
2023/03/20 09:13:00;;;;;;;10.95;4.95;;;;;;;-148.88;95.53;76484.16;4973516;28;20030;-84
2023/03/20 09:15:26;;;;;;;13.15;5.65;;;;;;;-148.88;94.53;76488.22;4973683;28;20026;-85
2023/03/20 09:17:51;;;;;;;10.80;4.45;;;;;;;-148.88;91.89;76463.84;4974118;28;20023;-84
2023/03/20 09:20:16;;;;;;;13.25;7.65;;;;;;;-148.88;92.24;76451.66;4988631;28;20038;-85
2023/03/20 09:22:44;;;;;;;12.52;4.60;;;;;;;-148.88;91.92;76435.41;4974096;28;20054;-84
2023/03/20 09:25:10;;;;;;;12.32;4.65;;;;;;;-148.88;90.44;76433.38;4972997;28;20354;-85
2023/03/20 09:27:35;;;;;;;12.13;5.97;;;;;;;-148.88;89.70;76451.66;4974277;28;20546;-85
2023/03/20 09:30:00;;;;;;;11.45;5.07;;;;;;;-148.88;91.36;76439.47;4974086;28;20030;-84
2023/03/20 09:32:26;;;;;;;12.35;5.03;;;;;;;-148.88;91.40;76423.19;4973982;28;20086;-85
2023/03/20 09:34:51;;;;;;;11.20;5.45;;;;;;;-148.88;89.69;76433.38;4972668;28;20029;-85
2023/03/20 09:37:16;;;;;;;15.75;6.45;;;;;;;-148.88;90.31;76453.69;4972012;28;20095;-85
2023/03/20 09:39:42;;;;;;;11.43;5.15;;;;;;;-148.88;89.88;76451.66;4972612;28;20027;-84
2023/03/20 09:42:25;;;;;;;11.25;5.28;;;;;;;-148.88;90.38;76465.88;4974264;28;20097;-85
2023/03/20 09:45:10;;;;;;;10.57;5.43;;;;;;;-148.88;90.82;76447.59;4972402;28;20061;-85
2023/03/20 09:48:05;;;;;;;;;;;;;;;-148.88;92.31;76441.50;4973125;28;20069;-84
2023/03/20 09:50:36;;;;;;;16.35;6.18;;;;;;;-148.88;91.04;76431.34;4922151;28;19918;-84
2023/03/20 09:53:10;;;;;;;13.25;6.55;;;;;;;-148.88;90.53;76451.66;4972320;28;20022;-84
2023/03/20 09:55:40;;;;;;;9.73;5.40;;;;;;;-148.88;90.28;76429.31;4974176;28;20058;-85
2023/03/20 09:58:29;;;;;;;14.73;6.50;;;;;;;-148.88;89.50;76441.50;4972385;28;20034;-85
2023/03/20 10:00:57;;;;;;;11.55;5.68;;;;;;;-148.88;88.50;76451.66;4972726;28;20177;-85
2023/03/20 10:03:37;;;;;;;12.57;6.55;;;;;;;-148.88;88.82;76441.50;4972277;28;20074;-84
2023/03/20 10:06:06;;;;;;;13.23;5.65;;;;;;;-148.88;90.06;76433.38;4974154;28;20027;-85
2023/03/20 10:08:35;;;;;;;11.43;5.85;;;;;;;-148.88;88.55;76435.41;4973978;28;20027;-86
2023/03/20 10:11:41;;;;;;;15.60;5.93;;;;;;;-148.88;87.96;76415.06;4972633;28;20480;-85
2023/03/20 10:14:25;;;;;;;13.68;5.72;;;;;;;-148.88;87.88;76419.16;4971707;28;20093;-85
2023/03/20 10:17:12;;;;;;;11.02;5.03;;;;;;;-148.88;84.88;76427.28;4973895;28;20101;-84
2023/03/20 10:20:12;;;;;;;7.78;4.22;;;;;;;-148.88;83.82;76415.06;4975113;28;20482;-85
2023/03/20 10:22:44;;;;;;;12.63;7.60;;;;;;;-148.88;83.90;76390.69;4974606;28;20030;-85
2023/03/20 10:25:32;;;;;;;11.98;7.60;;;;;;;-148.88;83.40;76374.44;4973550;28;20450;-85
2023/03/20 10:28:10;;;;;;;10.32;4.45;;;;;;;-148.88;82.25;76350.06;4973673;28;20026;-85
2023/03/20 10:31:06;;;;;;;10.38;4.15;;;;;;;-148.88;79.40;76366.31;4972611;28;20026;-85
2023/03/20 10:33:58;;;;;;;10.38;5.78;;;;;;;-148.88;79.14;76362.25;4973954;28;20446;-84
2023/03/20 10:36:49;;;;;;;7.13;3.67;;;;;;;-148.88;78.99;76366.31;4973682;28;20023;-85
2023/03/20 10:39:50;;;;;;;8.90;3.95;;;;;;;-148.88;77.32;76335.84;4972204;28;20062;-86
2023/03/20 10:44:50;;;;;;;7.38;3.50;;;;;;;-148.88;74.62;76305.38;5044659;28;20060;-80
2023/03/20 10:47:19;;;;;;;6.33;3.00;;;;;;;-148.88;75.80;76313.50;5042656;28;20040;-79
2023/03/20 10:50:06;;;;;;;8.93;4.78;;;;;;;-148.88;76.57;76309.44;5027423;28;20092;-79
2023/03/20 10:52:36;;;;;;;6.15;2.90;;;;;;;-148.88;77.73;76295.22;5029339;28;20076;-79
2023/03/20 10:55:10;;;;;;;8.15;3.22;;;;;;;-148.88;76.52;76297.25;5047155;28;20390;-80
2023/03/20 10:57:40;;;;;;;7.15;3.40;;;;;;;-148.88;75.33;76264.75;5029230;28;20026;-79
2023/03/20 11:00:12;;;;;;;9.70;3.03;;;;;;;-148.88;75.41;76260.69;5046574;28;20394;-79
2023/03/20 11:02:38;;;;;;;9.50;4.63;;;;;;;-148.88;75.66;76254.59;5028908;28;20025;-80
2023/03/20 11:05:21;;;;;;;10.27;4.53;;;;;;;-148.88;73.96;76260.69;5047126;28;20076;-79
2023/03/20 11:07:51;;;;;;;6.23;3.70;;;;;;;-148.88;72.04;76254.59;5029022;28;20029;-80
2023/03/20 11:10:16;;;;;;;5.05;2.80;;;;;;;-148.88;72.03;76248.50;5029633;28;20073;-80
2023/03/20 11:12:45;;;;;;;10.02;4.10;;;;;;;-148.88;72.62;76236.31;5046466;28;20033;-79
2023/03/20 11:15:21;;;;;;;6.78;4.00;;;;;;;-148.88;73.07;76240.38;5027808;28;20021;-79